KCRG

Jacksonville Executive at Craig Airport

Jacksonville, Florida, USA
KCRG 212320Z 2200/2224 07010KT P6SM VCSH SCT025 SCT050 BKN250 FM220600 04004KT P6SM VCSH SCT020 SCT040 BKN250 FM221400 08011KT P6SM VCSH SCT025 SCT050 BKN250
Issued Valid From Valid To
Sep-21 @ 23:20 UTC
(4 hours ago)
Sep-22 @ 00:00 UTC
(3 hours ago)
Sep-23 @ 00:00 UTC
(in 21 hours)
to
to
to
KCRG 212320Z 2200/2224 07010KT P6SM VCSH SCT025 SCT050 BKN250 FM220600 04004KT P6SM VCSH SCT020 SCT040 BKN250 FM221400 08011KT P6SM VCSH SCT025 SCT050 BKN250
Issued Sep-21 @ 23:20 UTC
(4 hours ago)
Valid From Sep-22 @ 00:00 UTC
(3 hours ago)
Valid To Sep-23 @ 00:00 UTC
(in 21 hours)
-
-
-